<?xml version="1.0" encoding="UTF-8" standalone="no" ?>
<gpx xmlns="http://www.topografix.com/GPX/1/1" xmlns:xsi="http://www.w3.org/2001/XMLSchema-instance" xsi:schemaLocation="http://www.topografix.com/GPX/1/1 http://www.topografix.com/GPX/1/1/gpx.xsd" version="1.1" creator="VisuGPX - https://www.visugpx.com">
  <metadata>
    <name>A10 Le chemin des Peintres</name>
    <desc><![CDATA[Site auteur : [url]https://www.randovaldoise.com/[/url]
Fiche :]]></desc>
  </metadata>
  <trk>
    <name><![CDATA[A10 Le chemin des Peintres]]></name>
    <extensions>
      <line xmlns="http://www.topografix.com/GPX/gpx_style/0/2">
        <color>0000FF</color>
        <width>4</width>
      </line>
    </extensions>
    <trkseg>
      <trkpt lat="49.07162" lon="2.17666">
        <ele>37.5</ele>
        <time>2014-09-06T00:00:00Z</time>
      </trkpt>
      <trkpt lat="49.07171" lon="2.17668">
        <ele>39</ele>
        <time>2014-09-06T00:00:04Z</time>
      </trkpt>
      <trkpt lat="49.07176" lon="2.17671">
        <ele>39.9</ele>
        <time>2014-09-06T00:00:06Z</time>
      </trkpt>
      <trkpt lat="49.07189" lon="2.17686">
        <ele>41.1</ele>
        <time>2014-09-06T00:00:13Z</time>
      </trkpt>
      <trkpt lat="49.07202" lon="2.1771">
        <ele>42.4</ele>
        <time>2014-09-06T00:00:21Z</time>
      </trkpt>
      <trkpt lat="49.07215" lon="2.17682">
        <ele>44.3</ele>
        <time>2014-09-06T00:00:30Z</time>
      </trkpt>
      <trkpt lat="49.07236" lon="2.17667">
        <ele>48</ele>
        <time>2014-09-06T00:00:40Z</time>
      </trkpt>
      <trkpt lat="49.07259" lon="2.1766">
        <ele>51.4</ele>
        <time>2014-09-06T00:00:50Z</time>
      </trkpt>
      <trkpt lat="49.07282" lon="2.17654">
        <ele>54.3</ele>
        <time>2014-09-06T00:01:00Z</time>
      </trkpt>
      <trkpt lat="49.07305" lon="2.17647">
        <ele>56.7</ele>
        <time>2014-09-06T00:01:10Z</time>
      </trkpt>
      <trkpt lat="49.07329" lon="2.17633">
        <ele>58</ele>
        <time>2014-09-06T00:01:21Z</time>
      </trkpt>
      <trkpt lat="49.07352" lon="2.17618">
        <ele>59.6</ele>
        <time>2014-09-06T00:01:32Z</time>
      </trkpt>
      <trkpt lat="49.07376" lon="2.17604">
        <ele>60.7</ele>
        <time>2014-09-06T00:01:43Z</time>
      </trkpt>
      <trkpt lat="49.07398" lon="2.17593">
        <ele>61.3</ele>
        <time>2014-09-06T00:01:53Z</time>
      </trkpt>
      <trkpt lat="49.0742" lon="2.17582">
        <ele>62.1</ele>
        <time>2014-09-06T00:02:03Z</time>
      </trkpt>
      <trkpt lat="49.0744" lon="2.17575">
        <ele>62.8</ele>
        <time>2014-09-06T00:02:12Z</time>
      </trkpt>
      <trkpt lat="49.07429" lon="2.17538">
        <ele>62.5</ele>
        <time>2014-09-06T00:02:23Z</time>
      </trkpt>
      <trkpt lat="49.07419" lon="2.17501">
        <ele>63</ele>
        <time>2014-09-06T00:02:34Z</time>
      </trkpt>
      <trkpt lat="49.07408" lon="2.17464">
        <ele>62.7</ele>
        <time>2014-09-06T00:02:45Z</time>
      </trkpt>
      <trkpt lat="49.07398" lon="2.17427">
        <ele>62.3</ele>
        <time>2014-09-06T00:02:56Z</time>
      </trkpt>
      <trkpt lat="49.07387" lon="2.1739">
        <ele>62.9</ele>
        <time>2014-09-06T00:03:07Z</time>
      </trkpt>
      <trkpt lat="49.07377" lon="2.17354">
        <ele>62.1</ele>
        <time>2014-09-06T00:03:18Z</time>
      </trkpt>
      <trkpt lat="49.07369" lon="2.17319">
        <ele>61.4</ele>
        <time>2014-09-06T00:03:28Z</time>
      </trkpt>
      <trkpt lat="49.07362" lon="2.17284">
        <ele>61</ele>
        <time>2014-09-06T00:03:38Z</time>
      </trkpt>
      <trkpt lat="49.07356" lon="2.17249">
        <ele>60.8</ele>
        <time>2014-09-06T00:03:48Z</time>
      </trkpt>
      <trkpt lat="49.07349" lon="2.17214">
        <ele>60.3</ele>
        <time>2014-09-06T00:03:58Z</time>
      </trkpt>
      <trkpt lat="49.07343" lon="2.1718">
        <ele>58.6</ele>
        <time>2014-09-06T00:04:08Z</time>
      </trkpt>
      <trkpt lat="49.07338" lon="2.17144">
        <ele>57.2</ele>
        <time>2014-09-06T00:04:18Z</time>
      </trkpt>
      <trkpt lat="49.0734" lon="2.17098">
        <ele>52.4</ele>
        <time>2014-09-06T00:04:30Z</time>
      </trkpt>
      <trkpt lat="49.07342" lon="2.17053">
        <ele>46.2</ele>
        <time>2014-09-06T00:04:42Z</time>
      </trkpt>
      <trkpt lat="49.07333" lon="2.17025">
        <ele>39.7</ele>
        <time>2014-09-06T00:04:50Z</time>
      </trkpt>
      <trkpt lat="49.07325" lon="2.16997">
        <ele>36.2</ele>
        <time>2014-09-06T00:04:58Z</time>
      </trkpt>
      <trkpt lat="49.07347" lon="2.16989">
        <ele>37.6</ele>
        <time>2014-09-06T00:05:07Z</time>
      </trkpt>
      <trkpt lat="49.07369" lon="2.16981">
        <ele>37.3</ele>
        <time>2014-09-06T00:05:16Z</time>
      </trkpt>
      <trkpt lat="49.07385" lon="2.16977">
        <ele>36</ele>
        <time>2014-09-06T00:05:23Z</time>
      </trkpt>
      <trkpt lat="49.07395" lon="2.16978">
        <ele>35.9</ele>
        <time>2014-09-06T00:05:27Z</time>
      </trkpt>
      <trkpt lat="49.07418" lon="2.16984">
        <ele>36.4</ele>
        <time>2014-09-06T00:05:37Z</time>
      </trkpt>
      <trkpt lat="49.07436" lon="2.16994">
        <ele>36</ele>
        <time>2014-09-06T00:05:45Z</time>
      </trkpt>
      <trkpt lat="49.07449" lon="2.17004">
        <ele>35.6</ele>
        <time>2014-09-06T00:05:51Z</time>
      </trkpt>
      <trkpt lat="49.07469" lon="2.17027">
        <ele>35.6</ele>
        <time>2014-09-06T00:06:01Z</time>
      </trkpt>
      <trkpt lat="49.07489" lon="2.1705">
        <ele>36.6</ele>
        <time>2014-09-06T00:06:11Z</time>
      </trkpt>
      <trkpt lat="49.07508" lon="2.17061">
        <ele>35.4</ele>
        <time>2014-09-06T00:06:19Z</time>
      </trkpt>
      <trkpt lat="49.07527" lon="2.17072">
        <ele>35</ele>
        <time>2014-09-06T00:06:27Z</time>
      </trkpt>
      <trkpt lat="49.07557" lon="2.17083">
        <ele>35</ele>
        <time>2014-09-06T00:06:40Z</time>
      </trkpt>
      <trkpt lat="49.07578" lon="2.17086">
        <ele>35.1</ele>
        <time>2014-09-06T00:06:49Z</time>
      </trkpt>
      <trkpt lat="49.07599" lon="2.17089">
        <ele>35.2</ele>
        <time>2014-09-06T00:06:58Z</time>
      </trkpt>
      <trkpt lat="49.07624" lon="2.17091">
        <ele>35.3</ele>
        <time>2014-09-06T00:07:09Z</time>
      </trkpt>
      <trkpt lat="49.0765" lon="2.17092">
        <ele>35.3</ele>
        <time>2014-09-06T00:07:20Z</time>
      </trkpt>
      <trkpt lat="49.07675" lon="2.17094">
        <ele>35.4</ele>
        <time>2014-09-06T00:07:31Z</time>
      </trkpt>
      <trkpt lat="49.0768" lon="2.17048">
        <ele>36</ele>
        <time>2014-09-06T00:07:44Z</time>
      </trkpt>
      <trkpt lat="49.07684" lon="2.17002">
        <ele>37.6</ele>
        <time>2014-09-06T00:07:57Z</time>
      </trkpt>
      <trkpt lat="49.07689" lon="2.16956">
        <ele>40.3</ele>
        <time>2014-09-06T00:08:10Z</time>
      </trkpt>
      <trkpt lat="49.07688" lon="2.16919">
        <ele>42.5</ele>
        <time>2014-09-06T00:08:20Z</time>
      </trkpt>
      <trkpt lat="49.07688" lon="2.16882">
        <ele>44.7</ele>
        <time>2014-09-06T00:08:30Z</time>
      </trkpt>
      <trkpt lat="49.07675" lon="2.16893">
        <ele>45.2</ele>
        <time>2014-09-06T00:08:36Z</time>
      </trkpt>
      <trkpt lat="49.07665" lon="2.16897">
        <ele>46</ele>
        <time>2014-09-06T00:08:40Z</time>
      </trkpt>
      <trkpt lat="49.07639" lon="2.16899">
        <ele>50.6</ele>
        <time>2014-09-06T00:08:51Z</time>
      </trkpt>
      <trkpt lat="49.07632" lon="2.16895">
        <ele>51.3</ele>
        <time>2014-09-06T00:08:54Z</time>
      </trkpt>
      <trkpt lat="49.0762" lon="2.1688">
        <ele>52.9</ele>
        <time>2014-09-06T00:09:00Z</time>
      </trkpt>
      <trkpt lat="49.07598" lon="2.16849">
        <ele>55.4</ele>
        <time>2014-09-06T00:09:12Z</time>
      </trkpt>
      <trkpt lat="49.07577" lon="2.16817">
        <ele>56.6</ele>
        <time>2014-09-06T00:09:24Z</time>
      </trkpt>
      <trkpt lat="49.07555" lon="2.16786">
        <ele>57.7</ele>
        <time>2014-09-06T00:09:36Z</time>
      </trkpt>
      <trkpt lat="49.07543" lon="2.16755">
        <ele>57.9</ele>
        <time>2014-09-06T00:09:46Z</time>
      </trkpt>
      <trkpt lat="49.0753" lon="2.16724">
        <ele>58.8</ele>
        <time>2014-09-06T00:09:56Z</time>
      </trkpt>
      <trkpt lat="49.07518" lon="2.16694">
        <ele>59</ele>
        <time>2014-09-06T00:10:06Z</time>
      </trkpt>
      <trkpt lat="49.07506" lon="2.16663">
        <ele>59.8</ele>
        <time>2014-09-06T00:10:16Z</time>
      </trkpt>
      <trkpt lat="49.07496" lon="2.1664">
        <ele>60</ele>
        <time>2014-09-06T00:10:24Z</time>
      </trkpt>
      <trkpt lat="49.07486" lon="2.16617">
        <ele>60</ele>
        <time>2014-09-06T00:10:32Z</time>
      </trkpt>
      <trkpt lat="49.07475" lon="2.16597">
        <ele>60.5</ele>
        <time>2014-09-06T00:10:39Z</time>
      </trkpt>
      <trkpt lat="49.07464" lon="2.16577">
        <ele>60.8</ele>
        <time>2014-09-06T00:10:46Z</time>
      </trkpt>
      <trkpt lat="49.07461" lon="2.16562">
        <ele>60.9</ele>
        <time>2014-09-06T00:10:50Z</time>
      </trkpt>
      <trkpt lat="49.07434" lon="2.16545">
        <ele>60.8</ele>
        <time>2014-09-06T00:11:02Z</time>
      </trkpt>
      <trkpt lat="49.0742" lon="2.1653">
        <ele>60.9</ele>
        <time>2014-09-06T00:11:09Z</time>
      </trkpt>
      <trkpt lat="49.07407" lon="2.16516">
        <ele>60.8</ele>
        <time>2014-09-06T00:11:16Z</time>
      </trkpt>
      <trkpt lat="49.07393" lon="2.16497">
        <ele>60.9</ele>
        <time>2014-09-06T00:11:24Z</time>
      </trkpt>
      <trkpt lat="49.0738" lon="2.16478">
        <ele>60.1</ele>
        <time>2014-09-06T00:11:32Z</time>
      </trkpt>
      <trkpt lat="49.07363" lon="2.16451">
        <ele>59.3</ele>
        <time>2014-09-06T00:11:42Z</time>
      </trkpt>
      <trkpt lat="49.07347" lon="2.16425">
        <ele>58.6</ele>
        <time>2014-09-06T00:11:52Z</time>
      </trkpt>
      <trkpt lat="49.07342" lon="2.16405">
        <ele>57.6</ele>
        <time>2014-09-06T00:11:58Z</time>
      </trkpt>
      <trkpt lat="49.07322" lon="2.16402">
        <ele>57</ele>
        <time>2014-09-06T00:12:06Z</time>
      </trkpt>
      <trkpt lat="49.07301" lon="2.16396">
        <ele>54.9</ele>
        <time>2014-09-06T00:12:15Z</time>
      </trkpt>
      <trkpt lat="49.07281" lon="2.1639">
        <ele>51.6</ele>
        <time>2014-09-06T00:12:24Z</time>
      </trkpt>
      <trkpt lat="49.07282" lon="2.16385">
        <ele>51.9</ele>
        <time>2014-09-06T00:12:25Z</time>
      </trkpt>
      <trkpt lat="49.07275" lon="2.16343">
        <ele>53.7</ele>
        <time>2014-09-06T00:12:37Z</time>
      </trkpt>
      <trkpt lat="49.07268" lon="2.16335">
        <ele>52.6</ele>
        <time>2014-09-06T00:12:41Z</time>
      </trkpt>
      <trkpt lat="49.07254" lon="2.16333">
        <ele>50.6</ele>
        <time>2014-09-06T00:12:47Z</time>
      </trkpt>
      <trkpt lat="49.07256" lon="2.16308">
        <ele>52.5</ele>
        <time>2014-09-06T00:12:54Z</time>
      </trkpt>
      <trkpt lat="49.07264" lon="2.16279">
        <ele>54.9</ele>
        <time>2014-09-06T00:13:03Z</time>
      </trkpt>
      <trkpt lat="49.07272" lon="2.1625">
        <ele>56.6</ele>
        <time>2014-09-06T00:13:12Z</time>
      </trkpt>
      <trkpt lat="49.07292" lon="2.16213">
        <ele>57.7</ele>
        <time>2014-09-06T00:13:25Z</time>
      </trkpt>
      <trkpt lat="49.07311" lon="2.16175">
        <ele>59.1</ele>
        <time>2014-09-06T00:13:38Z</time>
      </trkpt>
      <trkpt lat="49.07331" lon="2.16138">
        <ele>60</ele>
        <time>2014-09-06T00:13:51Z</time>
      </trkpt>
      <trkpt lat="49.0735" lon="2.16101">
        <ele>61.7</ele>
        <time>2014-09-06T00:14:04Z</time>
      </trkpt>
      <trkpt lat="49.07363" lon="2.16066">
        <ele>62.7</ele>
        <time>2014-09-06T00:14:15Z</time>
      </trkpt>
      <trkpt lat="49.07376" lon="2.16031">
        <ele>63.5</ele>
        <time>2014-09-06T00:14:26Z</time>
      </trkpt>
      <trkpt lat="49.07388" lon="2.15992">
        <ele>64.3</ele>
        <time>2014-09-06T00:14:38Z</time>
      </trkpt>
      <trkpt lat="49.07399" lon="2.15952">
        <ele>65.4</ele>
        <time>2014-09-06T00:14:50Z</time>
      </trkpt>
      <trkpt lat="49.07411" lon="2.15913">
        <ele>65.9</ele>
        <time>2014-09-06T00:15:02Z</time>
      </trkpt>
      <trkpt lat="49.0743" lon="2.15878">
        <ele>67.5</ele>
        <time>2014-09-06T00:15:14Z</time>
      </trkpt>
      <trkpt lat="49.0745" lon="2.15842">
        <ele>68.2</ele>
        <time>2014-09-06T00:15:26Z</time>
      </trkpt>
      <trkpt lat="49.07469" lon="2.15807">
        <ele>69.8</ele>
        <time>2014-09-06T00:15:38Z</time>
      </trkpt>
      <trkpt lat="49.07488" lon="2.15772">
        <ele>70.6</ele>
        <time>2014-09-06T00:15:50Z</time>
      </trkpt>
      <trkpt lat="49.07495" lon="2.15754">
        <ele>70.8</ele>
        <time>2014-09-06T00:15:56Z</time>
      </trkpt>
      <trkpt lat="49.07511" lon="2.15721">
        <ele>72.4</ele>
        <time>2014-09-06T00:16:07Z</time>
      </trkpt>
      <trkpt lat="49.07527" lon="2.15688">
        <ele>72.7</ele>
        <time>2014-09-06T00:16:18Z</time>
      </trkpt>
      <trkpt lat="49.07545" lon="2.15657">
        <ele>72.6</ele>
        <time>2014-09-06T00:16:29Z</time>
      </trkpt>
      <trkpt lat="49.07563" lon="2.15627">
        <ele>73.3</ele>
        <time>2014-09-06T00:16:40Z</time>
      </trkpt>
      <trkpt lat="49.07581" lon="2.15596">
        <ele>73.4</ele>
        <time>2014-09-06T00:16:51Z</time>
      </trkpt>
      <trkpt lat="49.07599" lon="2.1556">
        <ele>72.7</ele>
        <time>2014-09-06T00:17:03Z</time>
      </trkpt>
      <trkpt lat="49.07613" lon="2.15542">
        <ele>72.5</ele>
        <time>2014-09-06T00:17:11Z</time>
      </trkpt>
      <trkpt lat="49.07634" lon="2.15525">
        <ele>70.5</ele>
        <time>2014-09-06T00:17:21Z</time>
      </trkpt>
      <trkpt lat="49.07638" lon="2.15532">
        <ele>70.7</ele>
        <time>2014-09-06T00:17:24Z</time>
      </trkpt>
      <trkpt lat="49.07645" lon="2.15512">
        <ele>72</ele>
        <time>2014-09-06T00:17:30Z</time>
      </trkpt>
      <trkpt lat="49.07647" lon="2.15493">
        <ele>72.8</ele>
        <time>2014-09-06T00:17:35Z</time>
      </trkpt>
      <trkpt lat="49.07641" lon="2.15456">
        <ele>74.3</ele>
        <time>2014-09-06T00:17:45Z</time>
      </trkpt>
      <trkpt lat="49.07635" lon="2.15419">
        <ele>75.3</ele>
        <time>2014-09-06T00:17:55Z</time>
      </trkpt>
      <trkpt lat="49.07629" lon="2.15382">
        <ele>77.5</ele>
        <time>2014-09-06T00:18:05Z</time>
      </trkpt>
      <trkpt lat="49.07617" lon="2.15345">
        <ele>79.1</ele>
        <time>2014-09-06T00:18:16Z</time>
      </trkpt>
      <trkpt lat="49.07605" lon="2.15308">
        <ele>80.8</ele>
        <time>2014-09-06T00:18:27Z</time>
      </trkpt>
      <trkpt lat="49.07592" lon="2.15272">
        <ele>81.5</ele>
        <time>2014-09-06T00:18:38Z</time>
      </trkpt>
      <trkpt lat="49.0758" lon="2.15235">
        <ele>83</ele>
        <time>2014-09-06T00:18:49Z</time>
      </trkpt>
      <trkpt lat="49.07568" lon="2.15198">
        <ele>83.1</ele>
        <time>2014-09-06T00:19:00Z</time>
      </trkpt>
      <trkpt lat="49.07556" lon="2.15162">
        <ele>84.2</ele>
        <time>2014-09-06T00:19:11Z</time>
      </trkpt>
      <trkpt lat="49.0754" lon="2.15123">
        <ele>84.8</ele>
        <time>2014-09-06T00:19:23Z</time>
      </trkpt>
      <trkpt lat="49.07525" lon="2.15085">
        <ele>84.8</ele>
        <time>2014-09-06T00:19:35Z</time>
      </trkpt>
      <trkpt lat="49.07509" lon="2.15046">
        <ele>84.6</ele>
        <time>2014-09-06T00:19:47Z</time>
      </trkpt>
      <trkpt lat="49.07499" lon="2.15011">
        <ele>84.9</ele>
        <time>2014-09-06T00:19:57Z</time>
      </trkpt>
      <trkpt lat="49.07489" lon="2.14976">
        <ele>84.2</ele>
        <time>2014-09-06T00:20:07Z</time>
      </trkpt>
      <trkpt lat="49.07479" lon="2.14941">
        <ele>84.3</ele>
        <time>2014-09-06T00:20:17Z</time>
      </trkpt>
      <trkpt lat="49.07469" lon="2.14906">
        <ele>84.7</ele>
        <time>2014-09-06T00:20:27Z</time>
      </trkpt>
      <trkpt lat="49.0746" lon="2.14866">
        <ele>84</ele>
        <time>2014-09-06T00:20:39Z</time>
      </trkpt>
      <trkpt lat="49.0745" lon="2.14825">
        <ele>83.7</ele>
        <time>2014-09-06T00:20:51Z</time>
      </trkpt>
      <trkpt lat="49.07441" lon="2.14785">
        <ele>83.6</ele>
        <time>2014-09-06T00:21:03Z</time>
      </trkpt>
      <trkpt lat="49.0743" lon="2.1475">
        <ele>83</ele>
        <time>2014-09-06T00:21:13Z</time>
      </trkpt>
      <trkpt lat="49.07419" lon="2.14715">
        <ele>83.3</ele>
        <time>2014-09-06T00:21:23Z</time>
      </trkpt>
      <trkpt lat="49.07408" lon="2.14681">
        <ele>83.2</ele>
        <time>2014-09-06T00:21:33Z</time>
      </trkpt>
      <trkpt lat="49.07394" lon="2.14644">
        <ele>83</ele>
        <time>2014-09-06T00:21:45Z</time>
      </trkpt>
      <trkpt lat="49.0738" lon="2.14611">
        <ele>82.4</ele>
        <time>2014-09-06T00:21:56Z</time>
      </trkpt>
      <trkpt lat="49.07366" lon="2.14577">
        <ele>82.4</ele>
        <time>2014-09-06T00:22:07Z</time>
      </trkpt>
      <trkpt lat="49.07352" lon="2.14544">
        <ele>82.3</ele>
        <time>2014-09-06T00:22:18Z</time>
      </trkpt>
      <trkpt lat="49.07346" lon="2.14543">
        <ele>81.9</ele>
        <time>2014-09-06T00:22:21Z</time>
      </trkpt>
      <trkpt lat="49.07326" lon="2.14555">
        <ele>79.1</ele>
        <time>2014-09-06T00:22:30Z</time>
      </trkpt>
      <trkpt lat="49.07307" lon="2.14566">
        <ele>76.6</ele>
        <time>2014-09-06T00:22:39Z</time>
      </trkpt>
      <trkpt lat="49.07291" lon="2.14565">
        <ele>75.8</ele>
        <time>2014-09-06T00:22:46Z</time>
      </trkpt>
      <trkpt lat="49.07296" lon="2.14529">
        <ele>77.6</ele>
        <time>2014-09-06T00:22:56Z</time>
      </trkpt>
      <trkpt lat="49.07284" lon="2.14493">
        <ele>78.2</ele>
        <time>2014-09-06T00:23:07Z</time>
      </trkpt>
      <trkpt lat="49.07268" lon="2.14477">
        <ele>79.2</ele>
        <time>2014-09-06T00:23:15Z</time>
      </trkpt>
      <trkpt lat="49.07253" lon="2.14461">
        <ele>78.6</ele>
        <time>2014-09-06T00:23:23Z</time>
      </trkpt>
      <trkpt lat="49.07238" lon="2.14433">
        <ele>78.1</ele>
        <time>2014-09-06T00:23:33Z</time>
      </trkpt>
      <trkpt lat="49.07221" lon="2.14407">
        <ele>78.2</ele>
        <time>2014-09-06T00:23:43Z</time>
      </trkpt>
      <trkpt lat="49.07208" lon="2.14374">
        <ele>78</ele>
        <time>2014-09-06T00:23:53Z</time>
      </trkpt>
      <trkpt lat="49.07196" lon="2.14341">
        <ele>78.7</ele>
        <time>2014-09-06T00:24:03Z</time>
      </trkpt>
      <trkpt lat="49.0718" lon="2.14306">
        <ele>77.9</ele>
        <time>2014-09-06T00:24:15Z</time>
      </trkpt>
      <trkpt lat="49.07164" lon="2.14272">
        <ele>77.6</ele>
        <time>2014-09-06T00:24:27Z</time>
      </trkpt>
      <trkpt lat="49.07152" lon="2.14239">
        <ele>76</ele>
        <time>2014-09-06T00:24:37Z</time>
      </trkpt>
      <trkpt lat="49.07148" lon="2.14197">
        <ele>74.1</ele>
        <time>2014-09-06T00:24:49Z</time>
      </trkpt>
      <trkpt lat="49.07133" lon="2.14159">
        <ele>71.2</ele>
        <time>2014-09-06T00:25:01Z</time>
      </trkpt>
      <trkpt lat="49.07135" lon="2.14138">
        <ele>70.6</ele>
        <time>2014-09-06T00:25:07Z</time>
      </trkpt>
      <trkpt lat="49.0714" lon="2.14141">
        <ele>71.2</ele>
        <time>2014-09-06T00:25:09Z</time>
      </trkpt>
      <trkpt lat="49.07153" lon="2.14135">
        <ele>72.5</ele>
        <time>2014-09-06T00:25:15Z</time>
      </trkpt>
      <trkpt lat="49.07168" lon="2.14122">
        <ele>73.4</ele>
        <time>2014-09-06T00:25:22Z</time>
      </trkpt>
      <trkpt lat="49.07182" lon="2.1411">
        <ele>73</ele>
        <time>2014-09-06T00:25:29Z</time>
      </trkpt>
      <trkpt lat="49.07187" lon="2.14102">
        <ele>73.2</ele>
        <time>2014-09-06T00:25:32Z</time>
      </trkpt>
      <trkpt lat="49.07188" lon="2.14091">
        <ele>73.6</ele>
        <time>2014-09-06T00:25:35Z</time>
      </trkpt>
      <trkpt lat="49.07181" lon="2.14064">
        <ele>74.6</ele>
        <time>2014-09-06T00:25:43Z</time>
      </trkpt>
      <trkpt lat="49.07176" lon="2.14028">
        <ele>74.7</ele>
        <time>2014-09-06T00:25:53Z</time>
      </trkpt>
      <trkpt lat="49.07175" lon="2.13989">
        <ele>75.9</ele>
        <time>2014-09-06T00:26:04Z</time>
      </trkpt>
      <trkpt lat="49.07169" lon="2.13955">
        <ele>76.1</ele>
        <time>2014-09-06T00:26:14Z</time>
      </trkpt>
      <trkpt lat="49.07163" lon="2.13921">
        <ele>77.5</ele>
        <time>2014-09-06T00:26:24Z</time>
      </trkpt>
      <trkpt lat="49.07164" lon="2.13876">
        <ele>78.8</ele>
        <time>2014-09-06T00:26:36Z</time>
      </trkpt>
      <trkpt lat="49.07164" lon="2.13831">
        <ele>79.8</ele>
        <time>2014-09-06T00:26:48Z</time>
      </trkpt>
      <trkpt lat="49.07169" lon="2.13793">
        <ele>80</ele>
        <time>2014-09-06T00:26:59Z</time>
      </trkpt>
      <trkpt lat="49.07175" lon="2.13754">
        <ele>80.3</ele>
        <time>2014-09-06T00:27:10Z</time>
      </trkpt>
      <trkpt lat="49.0718" lon="2.13716">
        <ele>80.6</ele>
        <time>2014-09-06T00:27:21Z</time>
      </trkpt>
      <trkpt lat="49.07179" lon="2.13678">
        <ele>81</ele>
        <time>2014-09-06T00:27:31Z</time>
      </trkpt>
      <trkpt lat="49.07177" lon="2.13663">
        <ele>81</ele>
        <time>2014-09-06T00:27:35Z</time>
      </trkpt>
      <trkpt lat="49.07167" lon="2.13621">
        <ele>81</ele>
        <time>2014-09-06T00:27:47Z</time>
      </trkpt>
      <trkpt lat="49.07155" lon="2.13581">
        <ele>80.5</ele>
        <time>2014-09-06T00:27:59Z</time>
      </trkpt>
      <trkpt lat="49.07139" lon="2.13548">
        <ele>80</ele>
        <time>2014-09-06T00:28:10Z</time>
      </trkpt>
      <trkpt lat="49.07124" lon="2.13515">
        <ele>80</ele>
        <time>2014-09-06T00:28:21Z</time>
      </trkpt>
      <trkpt lat="49.0712" lon="2.13496">
        <ele>80</ele>
        <time>2014-09-06T00:28:26Z</time>
      </trkpt>
      <trkpt lat="49.07111" lon="2.13482">
        <ele>80</ele>
        <time>2014-09-06T00:28:31Z</time>
      </trkpt>
      <trkpt lat="49.071" lon="2.13445">
        <ele>80</ele>
        <time>2014-09-06T00:28:42Z</time>
      </trkpt>
      <trkpt lat="49.07088" lon="2.13408">
        <ele>80</ele>
        <time>2014-09-06T00:28:53Z</time>
      </trkpt>
      <trkpt lat="49.07077" lon="2.13371">
        <ele>80</ele>
        <time>2014-09-06T00:29:04Z</time>
      </trkpt>
      <trkpt lat="49.07072" lon="2.1333">
        <ele>80.4</ele>
        <time>2014-09-06T00:29:15Z</time>
      </trkpt>
      <trkpt lat="49.07068" lon="2.13289">
        <ele>80.2</ele>
        <time>2014-09-06T00:29:26Z</time>
      </trkpt>
      <trkpt lat="49.07058" lon="2.1325">
        <ele>80.9</ele>
        <time>2014-09-06T00:29:37Z</time>
      </trkpt>
      <trkpt lat="49.07045" lon="2.13209">
        <ele>80</ele>
        <time>2014-09-06T00:29:49Z</time>
      </trkpt>
      <trkpt lat="49.07032" lon="2.13168">
        <ele>80</ele>
        <time>2014-09-06T00:30:01Z</time>
      </trkpt>
      <trkpt lat="49.07019" lon="2.13127">
        <ele>80</ele>
        <time>2014-09-06T00:30:13Z</time>
      </trkpt>
      <trkpt lat="49.07006" lon="2.13087">
        <ele>79.1</ele>
        <time>2014-09-06T00:30:25Z</time>
      </trkpt>
      <trkpt lat="49.06996" lon="2.13051">
        <ele>77.5</ele>
        <time>2014-09-06T00:30:36Z</time>
      </trkpt>
      <trkpt lat="49.06986" lon="2.13015">
        <ele>74.6</ele>
        <time>2014-09-06T00:30:47Z</time>
      </trkpt>
      <trkpt lat="49.06981" lon="2.13004">
        <ele>73.6</ele>
        <time>2014-09-06T00:30:51Z</time>
      </trkpt>
      <trkpt lat="49.06962" lon="2.1298">
        <ele>71.2</ele>
        <time>2014-09-06T00:31:01Z</time>
      </trkpt>
      <trkpt lat="49.0695" lon="2.12957">
        <ele>69.7</ele>
        <time>2014-09-06T00:31:09Z</time>
      </trkpt>
      <trkpt lat="49.06935" lon="2.12923">
        <ele>67.8</ele>
        <time>2014-09-06T00:31:20Z</time>
      </trkpt>
      <trkpt lat="49.0692" lon="2.12889">
        <ele>66</ele>
        <time>2014-09-06T00:31:31Z</time>
      </trkpt>
      <trkpt lat="49.06918" lon="2.12859">
        <ele>63.8</ele>
        <time>2014-09-06T00:31:39Z</time>
      </trkpt>
      <trkpt lat="49.06914" lon="2.12841">
        <ele>62.4</ele>
        <time>2014-09-06T00:31:44Z</time>
      </trkpt>
      <trkpt lat="49.06903" lon="2.12811">
        <ele>59.4</ele>
        <time>2014-09-06T00:31:53Z</time>
      </trkpt>
      <trkpt lat="49.06892" lon="2.12782">
        <ele>56.5</ele>
        <time>2014-09-06T00:32:02Z</time>
      </trkpt>
      <trkpt lat="49.06881" lon="2.12752">
        <ele>51.3</ele>
        <time>2014-09-06T00:32:11Z</time>
      </trkpt>
      <trkpt lat="49.06875" lon="2.12729">
        <ele>42.2</ele>
        <time>2014-09-06T00:32:18Z</time>
      </trkpt>
      <trkpt lat="49.06877" lon="2.12714">
        <ele>38.6</ele>
        <time>2014-09-06T00:32:22Z</time>
      </trkpt>
      <trkpt lat="49.06894" lon="2.12688">
        <ele>34.3</ele>
        <time>2014-09-06T00:32:32Z</time>
      </trkpt>
      <trkpt lat="49.06918" lon="2.12677">
        <ele>33.5</ele>
        <time>2014-09-06T00:32:42Z</time>
      </trkpt>
      <trkpt lat="49.06892" lon="2.12681">
        <ele>33.2</ele>
        <time>2014-09-06T00:32:53Z</time>
      </trkpt>
      <trkpt lat="49.06866" lon="2.12685">
        <ele>31.2</ele>
        <time>2014-09-06T00:33:04Z</time>
      </trkpt>
      <trkpt lat="49.06849" lon="2.12683">
        <ele>30.9</ele>
        <time>2014-09-06T00:33:11Z</time>
      </trkpt>
      <trkpt lat="49.06832" lon="2.12681">
        <ele>31.5</ele>
        <time>2014-09-06T00:33:18Z</time>
      </trkpt>
      <trkpt lat="49.06811" lon="2.12682">
        <ele>32.3</ele>
        <time>2014-09-06T00:33:27Z</time>
      </trkpt>
      <trkpt lat="49.06802" lon="2.12686">
        <ele>32.4</ele>
        <time>2014-09-06T00:33:31Z</time>
      </trkpt>
      <trkpt lat="49.0678" lon="2.12713">
        <ele>31.3</ele>
        <time>2014-09-06T00:33:43Z</time>
      </trkpt>
      <trkpt lat="49.06775" lon="2.12716">
        <ele>31.2</ele>
        <time>2014-09-06T00:33:45Z</time>
      </trkpt>
      <trkpt lat="49.06762" lon="2.1272">
        <ele>30.7</ele>
        <time>2014-09-06T00:33:50Z</time>
      </trkpt>
      <trkpt lat="49.06747" lon="2.1272">
        <ele>30.4</ele>
        <time>2014-09-06T00:33:56Z</time>
      </trkpt>
      <trkpt lat="49.06735" lon="2.12754">
        <ele>28.9</ele>
        <time>2014-09-06T00:34:06Z</time>
      </trkpt>
      <trkpt lat="49.06724" lon="2.12788">
        <ele>27.6</ele>
        <time>2014-09-06T00:34:16Z</time>
      </trkpt>
      <trkpt lat="49.06717" lon="2.12824">
        <ele>27.4</ele>
        <time>2014-09-06T00:34:26Z</time>
      </trkpt>
      <trkpt lat="49.06714" lon="2.12864">
        <ele>28.6</ele>
        <time>2014-09-06T00:34:37Z</time>
      </trkpt>
      <trkpt lat="49.06712" lon="2.12904">
        <ele>32.3</ele>
        <time>2014-09-06T00:34:48Z</time>
      </trkpt>
      <trkpt lat="49.06714" lon="2.12936">
        <ele>34.3</ele>
        <time>2014-09-06T00:34:57Z</time>
      </trkpt>
      <trkpt lat="49.06724" lon="2.12972">
        <ele>33.7</ele>
        <time>2014-09-06T00:35:08Z</time>
      </trkpt>
      <trkpt lat="49.06735" lon="2.13009">
        <ele>36.5</ele>
        <time>2014-09-06T00:35:19Z</time>
      </trkpt>
      <trkpt lat="49.06745" lon="2.13045">
        <ele>35.2</ele>
        <time>2014-09-06T00:35:30Z</time>
      </trkpt>
      <trkpt lat="49.06756" lon="2.13081">
        <ele>33.5</ele>
        <time>2014-09-06T00:35:41Z</time>
      </trkpt>
      <trkpt lat="49.06766" lon="2.13117">
        <ele>34</ele>
        <time>2014-09-06T00:35:52Z</time>
      </trkpt>
      <trkpt lat="49.06774" lon="2.13134">
        <ele>33.3</ele>
        <time>2014-09-06T00:35:58Z</time>
      </trkpt>
      <trkpt lat="49.06786" lon="2.13167">
        <ele>32.5</ele>
        <time>2014-09-06T00:36:08Z</time>
      </trkpt>
      <trkpt lat="49.06797" lon="2.132">
        <ele>31.5</ele>
        <time>2014-09-06T00:36:18Z</time>
      </trkpt>
      <trkpt lat="49.06811" lon="2.13234">
        <ele>30.3</ele>
        <time>2014-09-06T00:36:29Z</time>
      </trkpt>
      <trkpt lat="49.06824" lon="2.13268">
        <ele>30.2</ele>
        <time>2014-09-06T00:36:40Z</time>
      </trkpt>
      <trkpt lat="49.06838" lon="2.13301">
        <ele>29.8</ele>
        <time>2014-09-06T00:36:51Z</time>
      </trkpt>
      <trkpt lat="49.06851" lon="2.13335">
        <ele>31</ele>
        <time>2014-09-06T00:37:02Z</time>
      </trkpt>
      <trkpt lat="49.06864" lon="2.13369">
        <ele>31.6</ele>
        <time>2014-09-06T00:37:13Z</time>
      </trkpt>
      <trkpt lat="49.06877" lon="2.13404">
        <ele>32</ele>
        <time>2014-09-06T00:37:24Z</time>
      </trkpt>
      <trkpt lat="49.0689" lon="2.13438">
        <ele>32.9</ele>
        <time>2014-09-06T00:37:35Z</time>
      </trkpt>
      <trkpt lat="49.06905" lon="2.13473">
        <ele>36.4</ele>
        <time>2014-09-06T00:37:46Z</time>
      </trkpt>
      <trkpt lat="49.0692" lon="2.13508">
        <ele>36.7</ele>
        <time>2014-09-06T00:37:57Z</time>
      </trkpt>
      <trkpt lat="49.06936" lon="2.13549">
        <ele>39.4</ele>
        <time>2014-09-06T00:38:10Z</time>
      </trkpt>
      <trkpt lat="49.06952" lon="2.13589">
        <ele>40.6</ele>
        <time>2014-09-06T00:38:23Z</time>
      </trkpt>
      <trkpt lat="49.06961" lon="2.13621">
        <ele>41.3</ele>
        <time>2014-09-06T00:38:32Z</time>
      </trkpt>
      <trkpt lat="49.0697" lon="2.13653">
        <ele>43</ele>
        <time>2014-09-06T00:38:41Z</time>
      </trkpt>
      <trkpt lat="49.06979" lon="2.13684">
        <ele>42.4</ele>
        <time>2014-09-06T00:38:50Z</time>
      </trkpt>
      <trkpt lat="49.06988" lon="2.13722">
        <ele>42.2</ele>
        <time>2014-09-06T00:39:01Z</time>
      </trkpt>
      <trkpt lat="49.06996" lon="2.13759">
        <ele>44.4</ele>
        <time>2014-09-06T00:39:12Z</time>
      </trkpt>
      <trkpt lat="49.07" lon="2.13797">
        <ele>44.3</ele>
        <time>2014-09-06T00:39:22Z</time>
      </trkpt>
      <trkpt lat="49.07004" lon="2.13835">
        <ele>43.5</ele>
        <time>2014-09-06T00:39:32Z</time>
      </trkpt>
      <trkpt lat="49.07008" lon="2.13872">
        <ele>41.9</ele>
        <time>2014-09-06T00:39:42Z</time>
      </trkpt>
      <trkpt lat="49.07015" lon="2.13905">
        <ele>41.7</ele>
        <time>2014-09-06T00:39:51Z</time>
      </trkpt>
      <trkpt lat="49.07021" lon="2.13939">
        <ele>42.2</ele>
        <time>2014-09-06T00:40:00Z</time>
      </trkpt>
      <trkpt lat="49.07028" lon="2.13972">
        <ele>42.1</ele>
        <time>2014-09-06T00:40:09Z</time>
      </trkpt>
      <trkpt lat="49.07033" lon="2.13979">
        <ele>44</ele>
        <time>2014-09-06T00:40:12Z</time>
      </trkpt>
      <trkpt lat="49.07033" lon="2.1402">
        <ele>41.4</ele>
        <time>2014-09-06T00:40:23Z</time>
      </trkpt>
      <trkpt lat="49.07032" lon="2.14061">
        <ele>40.8</ele>
        <time>2014-09-06T00:40:34Z</time>
      </trkpt>
      <trkpt lat="49.07032" lon="2.14102">
        <ele>38.4</ele>
        <time>2014-09-06T00:40:45Z</time>
      </trkpt>
      <trkpt lat="49.07031" lon="2.14142">
        <ele>37</ele>
        <time>2014-09-06T00:40:56Z</time>
      </trkpt>
      <trkpt lat="49.07026" lon="2.14172">
        <ele>35.4</ele>
        <time>2014-09-06T00:41:04Z</time>
      </trkpt>
      <trkpt lat="49.07021" lon="2.14202">
        <ele>34.2</ele>
        <time>2014-09-06T00:41:12Z</time>
      </trkpt>
      <trkpt lat="49.0702" lon="2.14233">
        <ele>34.5</ele>
        <time>2014-09-06T00:41:20Z</time>
      </trkpt>
      <trkpt lat="49.07019" lon="2.14263">
        <ele>33.2</ele>
        <time>2014-09-06T00:41:28Z</time>
      </trkpt>
      <trkpt lat="49.0702" lon="2.14308">
        <ele>32.7</ele>
        <time>2014-09-06T00:41:40Z</time>
      </trkpt>
      <trkpt lat="49.07021" lon="2.14353">
        <ele>34.4</ele>
        <time>2014-09-06T00:41:52Z</time>
      </trkpt>
      <trkpt lat="49.07025" lon="2.14381">
        <ele>35.5</ele>
        <time>2014-09-06T00:42:00Z</time>
      </trkpt>
      <trkpt lat="49.07039" lon="2.14414">
        <ele>35.6</ele>
        <time>2014-09-06T00:42:11Z</time>
      </trkpt>
      <trkpt lat="49.07054" lon="2.14448">
        <ele>38.1</ele>
        <time>2014-09-06T00:42:22Z</time>
      </trkpt>
      <trkpt lat="49.07068" lon="2.14481">
        <ele>40.7</ele>
        <time>2014-09-06T00:42:33Z</time>
      </trkpt>
      <trkpt lat="49.07079" lon="2.14513">
        <ele>42.5</ele>
        <time>2014-09-06T00:42:43Z</time>
      </trkpt>
      <trkpt lat="49.0709" lon="2.14544">
        <ele>43.3</ele>
        <time>2014-09-06T00:42:53Z</time>
      </trkpt>
      <trkpt lat="49.07101" lon="2.14576">
        <ele>43.9</ele>
        <time>2014-09-06T00:43:03Z</time>
      </trkpt>
      <trkpt lat="49.07109" lon="2.14604">
        <ele>41.7</ele>
        <time>2014-09-06T00:43:11Z</time>
      </trkpt>
      <trkpt lat="49.07116" lon="2.14632">
        <ele>39</ele>
        <time>2014-09-06T00:43:19Z</time>
      </trkpt>
      <trkpt lat="49.07124" lon="2.14672">
        <ele>38.1</ele>
        <time>2014-09-06T00:43:30Z</time>
      </trkpt>
      <trkpt lat="49.07131" lon="2.14711">
        <ele>36.9</ele>
        <time>2014-09-06T00:43:41Z</time>
      </trkpt>
      <trkpt lat="49.07146" lon="2.14745">
        <ele>38.5</ele>
        <time>2014-09-06T00:43:52Z</time>
      </trkpt>
      <trkpt lat="49.07158" lon="2.14777">
        <ele>40.6</ele>
        <time>2014-09-06T00:44:02Z</time>
      </trkpt>
      <trkpt lat="49.07169" lon="2.14818">
        <ele>40.9</ele>
        <time>2014-09-06T00:44:14Z</time>
      </trkpt>
      <trkpt lat="49.07179" lon="2.14859">
        <ele>41.3</ele>
        <time>2014-09-06T00:44:26Z</time>
      </trkpt>
      <trkpt lat="49.0719" lon="2.14899">
        <ele>42.5</ele>
        <time>2014-09-06T00:44:38Z</time>
      </trkpt>
      <trkpt lat="49.07199" lon="2.14919">
        <ele>44.2</ele>
        <time>2014-09-06T00:44:45Z</time>
      </trkpt>
      <trkpt lat="49.07205" lon="2.14928">
        <ele>47</ele>
        <time>2014-09-06T00:44:48Z</time>
      </trkpt>
      <trkpt lat="49.07202" lon="2.14957">
        <ele>44.2</ele>
        <time>2014-09-06T00:44:56Z</time>
      </trkpt>
      <trkpt lat="49.07199" lon="2.14986">
        <ele>43.1</ele>
        <time>2014-09-06T00:45:04Z</time>
      </trkpt>
      <trkpt lat="49.07197" lon="2.15019">
        <ele>43.4</ele>
        <time>2014-09-06T00:45:13Z</time>
      </trkpt>
      <trkpt lat="49.07195" lon="2.15052">
        <ele>41.4</ele>
        <time>2014-09-06T00:45:22Z</time>
      </trkpt>
      <trkpt lat="49.07196" lon="2.1509">
        <ele>41.5</ele>
        <time>2014-09-06T00:45:32Z</time>
      </trkpt>
      <trkpt lat="49.07197" lon="2.15128">
        <ele>40.3</ele>
        <time>2014-09-06T00:45:42Z</time>
      </trkpt>
      <trkpt lat="49.07198" lon="2.15166">
        <ele>40</ele>
        <time>2014-09-06T00:45:52Z</time>
      </trkpt>
      <trkpt lat="49.07197" lon="2.15214">
        <ele>39.6</ele>
        <time>2014-09-06T00:46:05Z</time>
      </trkpt>
      <trkpt lat="49.07196" lon="2.15262">
        <ele>38</ele>
        <time>2014-09-06T00:46:18Z</time>
      </trkpt>
      <trkpt lat="49.07196" lon="2.1531">
        <ele>37.4</ele>
        <time>2014-09-06T00:46:31Z</time>
      </trkpt>
      <trkpt lat="49.07195" lon="2.15357">
        <ele>37.2</ele>
        <time>2014-09-06T00:46:44Z</time>
      </trkpt>
      <trkpt lat="49.07198" lon="2.15393">
        <ele>38.3</ele>
        <time>2014-09-06T00:46:54Z</time>
      </trkpt>
      <trkpt lat="49.07201" lon="2.15429">
        <ele>37.4</ele>
        <time>2014-09-06T00:47:04Z</time>
      </trkpt>
      <trkpt lat="49.07204" lon="2.15465">
        <ele>36.1</ele>
        <time>2014-09-06T00:47:14Z</time>
      </trkpt>
      <trkpt lat="49.072" lon="2.15502">
        <ele>34.8</ele>
        <time>2014-09-06T00:47:24Z</time>
      </trkpt>
      <trkpt lat="49.07187" lon="2.15502">
        <ele>33.9</ele>
        <time>2014-09-06T00:47:29Z</time>
      </trkpt>
      <trkpt lat="49.07179" lon="2.15534">
        <ele>35.3</ele>
        <time>2014-09-06T00:47:38Z</time>
      </trkpt>
      <trkpt lat="49.07171" lon="2.15566">
        <ele>36</ele>
        <time>2014-09-06T00:47:47Z</time>
      </trkpt>
      <trkpt lat="49.07165" lon="2.15607">
        <ele>38.8</ele>
        <time>2014-09-06T00:47:58Z</time>
      </trkpt>
      <trkpt lat="49.07158" lon="2.15647">
        <ele>37.1</ele>
        <time>2014-09-06T00:48:09Z</time>
      </trkpt>
      <trkpt lat="49.07152" lon="2.15688">
        <ele>36.8</ele>
        <time>2014-09-06T00:48:20Z</time>
      </trkpt>
      <trkpt lat="49.07146" lon="2.15728">
        <ele>36.4</ele>
        <time>2014-09-06T00:48:31Z</time>
      </trkpt>
      <trkpt lat="49.07139" lon="2.15763">
        <ele>36</ele>
        <time>2014-09-06T00:48:41Z</time>
      </trkpt>
      <trkpt lat="49.07132" lon="2.15798">
        <ele>36</ele>
        <time>2014-09-06T00:48:51Z</time>
      </trkpt>
      <trkpt lat="49.07125" lon="2.15833">
        <ele>36.4</ele>
        <time>2014-09-06T00:49:01Z</time>
      </trkpt>
      <trkpt lat="49.07118" lon="2.15867">
        <ele>35.3</ele>
        <time>2014-09-06T00:49:11Z</time>
      </trkpt>
      <trkpt lat="49.07114" lon="2.15911">
        <ele>35.8</ele>
        <time>2014-09-06T00:49:23Z</time>
      </trkpt>
      <trkpt lat="49.0711" lon="2.15955">
        <ele>35.8</ele>
        <time>2014-09-06T00:49:35Z</time>
      </trkpt>
      <trkpt lat="49.07106" lon="2.15999">
        <ele>36.2</ele>
        <time>2014-09-06T00:49:47Z</time>
      </trkpt>
      <trkpt lat="49.07109" lon="2.16043">
        <ele>36.1</ele>
        <time>2014-09-06T00:49:59Z</time>
      </trkpt>
      <trkpt lat="49.07111" lon="2.16087">
        <ele>37.1</ele>
        <time>2014-09-06T00:50:11Z</time>
      </trkpt>
      <trkpt lat="49.07114" lon="2.1613">
        <ele>37.1</ele>
        <time>2014-09-06T00:50:23Z</time>
      </trkpt>
      <trkpt lat="49.07118" lon="2.16172">
        <ele>37.5</ele>
        <time>2014-09-06T00:50:34Z</time>
      </trkpt>
      <trkpt lat="49.07121" lon="2.16213">
        <ele>36</ele>
        <time>2014-09-06T00:50:45Z</time>
      </trkpt>
      <trkpt lat="49.07125" lon="2.16255">
        <ele>34.8</ele>
        <time>2014-09-06T00:50:56Z</time>
      </trkpt>
      <trkpt lat="49.07128" lon="2.16296">
        <ele>35.3</ele>
        <time>2014-09-06T00:51:07Z</time>
      </trkpt>
      <trkpt lat="49.07127" lon="2.16341">
        <ele>37.8</ele>
        <time>2014-09-06T00:51:19Z</time>
      </trkpt>
      <trkpt lat="49.07127" lon="2.16386">
        <ele>37.9</ele>
        <time>2014-09-06T00:51:31Z</time>
      </trkpt>
      <trkpt lat="49.07126" lon="2.1643">
        <ele>37.8</ele>
        <time>2014-09-06T00:51:43Z</time>
      </trkpt>
      <trkpt lat="49.07129" lon="2.1646">
        <ele>38</ele>
        <time>2014-09-06T00:51:51Z</time>
      </trkpt>
      <trkpt lat="49.07132" lon="2.16489">
        <ele>38.9</ele>
        <time>2014-09-06T00:51:59Z</time>
      </trkpt>
      <trkpt lat="49.07141" lon="2.16515">
        <ele>40.6</ele>
        <time>2014-09-06T00:52:07Z</time>
      </trkpt>
      <trkpt lat="49.07149" lon="2.16541">
        <ele>41.1</ele>
        <time>2014-09-06T00:52:15Z</time>
      </trkpt>
      <trkpt lat="49.07154" lon="2.16546">
        <ele>41.6</ele>
        <time>2014-09-06T00:52:17Z</time>
      </trkpt>
      <trkpt lat="49.07155" lon="2.16549">
        <ele>41.7</ele>
        <time>2014-09-06T00:52:18Z</time>
      </trkpt>
      <trkpt lat="49.07153" lon="2.16563">
        <ele>41.5</ele>
        <time>2014-09-06T00:52:22Z</time>
      </trkpt>
      <trkpt lat="49.07143" lon="2.16574">
        <ele>40</ele>
        <time>2014-09-06T00:52:27Z</time>
      </trkpt>
      <trkpt lat="49.07147" lon="2.16613">
        <ele>37.3</ele>
        <time>2014-09-06T00:52:38Z</time>
      </trkpt>
      <trkpt lat="49.07151" lon="2.16652">
        <ele>37.9</ele>
        <time>2014-09-06T00:52:49Z</time>
      </trkpt>
      <trkpt lat="49.07155" lon="2.16691">
        <ele>38.9</ele>
        <time>2014-09-06T00:53:00Z</time>
      </trkpt>
      <trkpt lat="49.07163" lon="2.16717">
        <ele>36.7</ele>
        <time>2014-09-06T00:53:08Z</time>
      </trkpt>
      <trkpt lat="49.07174" lon="2.1674">
        <ele>35.5</ele>
        <time>2014-09-06T00:53:16Z</time>
      </trkpt>
      <trkpt lat="49.07184" lon="2.16762">
        <ele>34.4</ele>
        <time>2014-09-06T00:53:24Z</time>
      </trkpt>
      <trkpt lat="49.07203" lon="2.16792">
        <ele>33.4</ele>
        <time>2014-09-06T00:53:35Z</time>
      </trkpt>
      <trkpt lat="49.07222" lon="2.16821">
        <ele>31.3</ele>
        <time>2014-09-06T00:53:46Z</time>
      </trkpt>
      <trkpt lat="49.0723" lon="2.1685">
        <ele>30.7</ele>
        <time>2014-09-06T00:53:55Z</time>
      </trkpt>
      <trkpt lat="49.07238" lon="2.1689">
        <ele>30.1</ele>
        <time>2014-09-06T00:54:06Z</time>
      </trkpt>
      <trkpt lat="49.07245" lon="2.16929">
        <ele>30</ele>
        <time>2014-09-06T00:54:17Z</time>
      </trkpt>
      <trkpt lat="49.07253" lon="2.16969">
        <ele>30.1</ele>
        <time>2014-09-06T00:54:28Z</time>
      </trkpt>
      <trkpt lat="49.0726" lon="2.17008">
        <ele>31.6</ele>
        <time>2014-09-06T00:54:39Z</time>
      </trkpt>
      <trkpt lat="49.07256" lon="2.17039">
        <ele>33.6</ele>
        <time>2014-09-06T00:54:48Z</time>
      </trkpt>
      <trkpt lat="49.07235" lon="2.17055">
        <ele>33.9</ele>
        <time>2014-09-06T00:54:57Z</time>
      </trkpt>
      <trkpt lat="49.07215" lon="2.1707">
        <ele>34.8</ele>
        <time>2014-09-06T00:55:06Z</time>
      </trkpt>
      <trkpt lat="49.07197" lon="2.17086">
        <ele>36</ele>
        <time>2014-09-06T00:55:15Z</time>
      </trkpt>
      <trkpt lat="49.07179" lon="2.17101">
        <ele>36.9</ele>
        <time>2014-09-06T00:55:24Z</time>
      </trkpt>
      <trkpt lat="49.07166" lon="2.1712">
        <ele>36.9</ele>
        <time>2014-09-06T00:55:31Z</time>
      </trkpt>
      <trkpt lat="49.07154" lon="2.17139">
        <ele>37.4</ele>
        <time>2014-09-06T00:55:38Z</time>
      </trkpt>
      <trkpt lat="49.07139" lon="2.17159">
        <ele>34.7</ele>
        <time>2014-09-06T00:55:46Z</time>
      </trkpt>
      <trkpt lat="49.07125" lon="2.17178">
        <ele>32.8</ele>
        <time>2014-09-06T00:55:54Z</time>
      </trkpt>
      <trkpt lat="49.07113" lon="2.17159">
        <ele>29.7</ele>
        <time>2014-09-06T00:56:01Z</time>
      </trkpt>
      <trkpt lat="49.07102" lon="2.17141">
        <ele>29.3</ele>
        <time>2014-09-06T00:56:08Z</time>
      </trkpt>
      <trkpt lat="49.07086" lon="2.17126">
        <ele>28.1</ele>
        <time>2014-09-06T00:56:16Z</time>
      </trkpt>
      <trkpt lat="49.07063" lon="2.17109">
        <ele>28</ele>
        <time>2014-09-06T00:56:27Z</time>
      </trkpt>
      <trkpt lat="49.07058" lon="2.17152">
        <ele>27.6</ele>
        <time>2014-09-06T00:56:39Z</time>
      </trkpt>
      <trkpt lat="49.0706" lon="2.17197">
        <ele>27.2</ele>
        <time>2014-09-06T00:56:51Z</time>
      </trkpt>
      <trkpt lat="49.07063" lon="2.17241">
        <ele>28.3</ele>
        <time>2014-09-06T00:57:03Z</time>
      </trkpt>
      <trkpt lat="49.07065" lon="2.17286">
        <ele>28.3</ele>
        <time>2014-09-06T00:57:15Z</time>
      </trkpt>
      <trkpt lat="49.07067" lon="2.17331">
        <ele>28.9</ele>
        <time>2014-09-06T00:57:27Z</time>
      </trkpt>
      <trkpt lat="49.07069" lon="2.17375">
        <ele>29</ele>
        <time>2014-09-06T00:57:39Z</time>
      </trkpt>
      <trkpt lat="49.07072" lon="2.1742">
        <ele>29.2</ele>
        <time>2014-09-06T00:57:51Z</time>
      </trkpt>
      <trkpt lat="49.07074" lon="2.17464">
        <ele>30</ele>
        <time>2014-09-06T00:58:03Z</time>
      </trkpt>
      <trkpt lat="49.07076" lon="2.17508">
        <ele>29.5</ele>
        <time>2014-09-06T00:58:15Z</time>
      </trkpt>
      <trkpt lat="49.07079" lon="2.17541">
        <ele>29.3</ele>
        <time>2014-09-06T00:58:24Z</time>
      </trkpt>
      <trkpt lat="49.07081" lon="2.17573">
        <ele>29.5</ele>
        <time>2014-09-06T00:58:33Z</time>
      </trkpt>
      <trkpt lat="49.07091" lon="2.17609">
        <ele>29.8</ele>
        <time>2014-09-06T00:58:43Z</time>
      </trkpt>
      <trkpt lat="49.071" lon="2.17644">
        <ele>30.3</ele>
        <time>2014-09-06T00:58:53Z</time>
      </trkpt>
      <trkpt lat="49.0711" lon="2.1768">
        <ele>31.7</ele>
        <time>2014-09-06T00:59:03Z</time>
      </trkpt>
      <trkpt lat="49.07119" lon="2.17715">
        <ele>32.4</ele>
        <time>2014-09-06T00:59:13Z</time>
      </trkpt>
      <trkpt lat="49.0714" lon="2.1769">
        <ele>35</ele>
        <time>2014-09-06T00:59:24Z</time>
      </trkpt>
      <trkpt lat="49.0716" lon="2.17666">
        <ele>37.3</ele>
        <time>2014-09-06T00:59:35Z</time>
      </trkpt>
      <trkpt lat="49.0717" lon="2.17668">
        <ele>38.7</ele>
        <time>2014-09-06T00:59:39Z</time>
      </trkpt>
    </trkseg>
  </trk>
</gpx>